sensor_id;sensor_type;location;lat;lon;timestamp;temperature;humidity
67165;SHT31;54093;50.014;19.984;2023-05-07T00:02:28;12.13;78.28
67165;SHT31;54093;50.014;19.984;2023-05-07T00:11:50;12.20;78.18
67165;SHT31;54093;50.014;19.984;2023-05-07T00:21:11;12.21;78.30
67165;SHT31;54093;50.014;19.984;2023-05-07T00:30:32;12.18;78.56
67165;SHT31;54093;50.014;19.984;2023-05-07T00:39:52;12.07;78.32
67165;SHT31;54093;50.014;19.984;2023-05-07T00:49:13;12.03;78.28
67165;SHT31;54093;50.014;19.984;2023-05-07T00:58:35;11.96;78.39
67165;SHT31;54093;50.014;19.984;2023-05-07T01:07:56;11.86;78.63
67165;SHT31;54093;50.014;19.984;2023-05-07T01:17:17;11.86;78.81
67165;SHT31;54093;50.014;19.984;2023-05-07T01:26:39;11.83;78.85
67165;SHT31;54093;50.014;19.984;2023-05-07T01:36:00;11.78;78.16
67165;SHT31;54093;50.014;19.984;2023-05-07T01:45:24;11.70;78.95
67165;SHT31;54093;50.014;19.984;2023-05-07T01:54:46;11.66;78.76
67165;SHT31;54093;50.014;19.984;2023-05-07T02:04:07;11.52;78.47
67165;SHT31;54093;50.014;19.984;2023-05-07T02:13:30;11.32;78.81
67165;SHT31;54093;50.014;19.984;2023-05-07T02:22:51;11.03;79.05
67165;SHT31;54093;50.014;19.984;2023-05-07T02:32:11;11.00;78.69
67165;SHT31;54093;50.014;19.984;2023-05-07T02:41:33;10.85;78.47
67165;SHT31;54093;50.014;19.984;2023-05-07T02:50:55;10.94;78.47
67165;SHT31;54093;50.014;19.984;2023-05-07T03:00:17;10.87;78.09
67165;SHT31;54093;50.014;19.984;2023-05-07T03:09:38;10.85;78.32
67165;SHT31;54093;50.014;19.984;2023-05-07T03:18:59;10.74;78.08
67165;SHT31;54093;50.014;19.984;2023-05-07T03:28:20;10.72;78.59
67165;SHT31;54093;50.014;19.984;2023-05-07T03:37:42;10.59;78.58
67165;SHT31;54093;50.014;19.984;2023-05-07T03:47:03;10.55;78.86
67165;SHT31;54093;50.014;19.984;2023-05-07T03:56:24;10.59;79.06
67165;SHT31;54093;50.014;19.984;2023-05-07T04:05:47;10.46;79.25
67165;SHT31;54093;50.014;19.984;2023-05-07T04:15:08;10.42;77.85
67165;SHT31;54093;50.014;19.984;2023-05-07T04:24:31;10.32;78.33
67165;SHT31;54093;50.014;19.984;2023-05-07T04:33:53;10.38;78.25
67165;SHT31;54093;50.014;19.984;2023-05-07T04:43:14;10.31;77.54
67165;SHT31;54093;50.014;19.984;2023-05-07T04:52:36;10.15;78.25
67165;SHT31;54093;50.014;19.984;2023-05-07T05:01:57;10.15;78.56
67165;SHT31;54093;50.014;19.984;2023-05-07T05:11:18;10.08;78.82
67165;SHT31;54093;50.014;19.984;2023-05-07T05:20:39;10.14;78.61
67165;SHT31;54093;50.014;19.984;2023-05-07T05:30:00;10.12;79.38
67165;SHT31;54093;50.014;19.984;2023-05-07T05:39:21;10.12;79.35
67165;SHT31;54093;50.014;19.984;2023-05-07T05:48:43;10.02;79.00
67165;SHT31;54093;50.014;19.984;2023-05-07T05:58:04;9.95;78.65
67165;SHT31;54093;50.014;19.984;2023-05-07T06:07:25;9.84;78.41
67165;SHT31;54093;50.014;19.984;2023-05-07T06:16:46;9.71;77.96
67165;SHT31;54093;50.014;19.984;2023-05-07T06:26:07;9.49;78.29
67165;SHT31;54093;50.014;19.984;2023-05-07T06:35:28;9.50;78.23
67165;SHT31;54093;50.014;19.984;2023-05-07T06:44:49;9.30;78.31
67165;SHT31;54093;50.014;19.984;2023-05-07T06:54:10;9.36;79.06
67165;SHT31;54093;50.014;19.984;2023-05-07T07:03:31;9.33;78.86
67165;SHT31;54093;50.014;19.984;2023-05-07T07:12:52;9.36;78.61
67165;SHT31;54093;50.014;19.984;2023-05-07T07:22:13;9.36;78.60
67165;SHT31;54093;50.014;19.984;2023-05-07T07:31:34;9.40;78.50
67165;SHT31;54093;50.014;19.984;2023-05-07T07:40:55;9.30;77.79
67165;SHT31;54093;50.014;19.984;2023-05-07T07:50:16;9.26;77.58
67165;SHT31;54093;50.014;19.984;2023-05-07T07:59:36;9.14;77.96
67165;SHT31;54093;50.014;19.984;2023-05-07T08:08:57;9.12;77.45
67165;SHT31;54093;50.014;19.984;2023-05-07T08:18:18;9.11;77.40
67165;SHT31;54093;50.014;19.984;2023-05-07T08:27:39;9.08;77.53
67165;SHT31;54093;50.014;19.984;2023-05-07T08:37:00;9.09;77.70
67165;SHT31;54093;50.014;19.984;2023-05-07T08:46:21;8.99;77.49
67165;SHT31;54093;50.014;19.984;2023-05-07T08:55:43;8.95;77.43
67165;SHT31;54093;50.014;19.984;2023-05-07T09:05:04;8.87;77.32
67165;SHT31;54093;50.014;19.984;2023-05-07T09:14:25;8.89;77.47
67165;SHT31;54093;50.014;19.984;2023-05-07T09:23:49;8.85;77.62
67165;SHT31;54093;50.014;19.984;2023-05-07T09:33:12;8.79;77.56
67165;SHT31;54093;50.014;19.984;2023-05-07T09:42:33;8.85;77.47
67165;SHT31;54093;50.014;19.984;2023-05-07T09:51:54;8.82;77.22
67165;SHT31;54093;50.014;19.984;2023-05-07T10:01:17;8.81;77.12
67165;SHT31;54093;50.014;19.984;2023-05-07T10:10:40;8.87;76.81
67165;SHT31;54093;50.014;19.984;2023-05-07T10:20:02;8.77;76.89
67165;SHT31;54093;50.014;19.984;2023-05-07T10:38:48;8.78;76.66
67165;SHT31;54093;50.014;19.984;2023-05-07T10:48:16;8.77;77.11
67165;SHT31;54093;50.014;19.984;2023-05-07T10:57:37;8.79;77.05
67165;SHT31;54093;50.014;19.984;2023-05-07T11:16:31;8.77;76.51
67165;SHT31;54093;50.014;19.984;2023-05-07T11:26:08;8.75;75.69
67165;SHT31;54093;50.014;19.984;2023-05-07T11:35:29;8.74;75.97
67165;SHT31;54093;50.014;19.984;2023-05-07T11:44:50;8.81;75.15
67165;SHT31;54093;50.014;19.984;2023-05-07T11:54:11;8.70;74.73
67165;SHT31;54093;50.014;19.984;2023-05-07T12:03:35;8.71;75.73
67165;SHT31;54093;50.014;19.984;2023-05-07T12:12:57;8.72;76.00
67165;SHT31;54093;50.014;19.984;2023-05-07T12:22:18;8.75;75.52
67165;SHT31;54093;50.014;19.984;2023-05-07T12:31:42;8.74;74.96
67165;SHT31;54093;50.014;19.984;2023-05-07T12:41:04;8.67;75.14
67165;SHT31;54093;50.014;19.984;2023-05-07T12:50:25;8.65;74.24
67165;SHT31;54093;50.014;19.984;2023-05-07T12:59:46;8.57;74.62
67165;SHT31;54093;50.014;19.984;2023-05-07T13:09:07;8.53;74.77
67165;SHT31;54093;50.014;19.984;2023-05-07T13:18:32;8.64;74.58
67165;SHT31;54093;50.014;19.984;2023-05-07T13:27:53;8.58;74.86
67165;SHT31;54093;50.014;19.984;2023-05-07T13:37:14;8.67;75.00
67165;SHT31;54093;50.014;19.984;2023-05-07T13:46:35;8.61;74.00
67165;SHT31;54093;50.014;19.984;2023-05-07T13:55:56;8.57;74.49
67165;SHT31;54093;50.014;19.984;2023-05-07T14:05:17;8.68;73.64
67165;SHT31;54093;50.014;19.984;2023-05-07T14:14:38;8.61;73.79
67165;SHT31;54093;50.014;19.984;2023-05-07T14:23:59;8.60;74.11
67165;SHT31;54093;50.014;19.984;2023-05-07T14:33:20;8.58;73.57
67165;SHT31;54093;50.014;19.984;2023-05-07T14:42:41;8.60;73.72
67165;SHT31;54093;50.014;19.984;2023-05-07T14:52:02;8.53;73.94
67165;SHT31;54093;50.014;19.984;2023-05-07T15:01:26;8.49;74.12
67165;SHT31;54093;50.014;19.984;2023-05-07T15:10:47;8.50;74.90
67165;SHT31;54093;50.014;19.984;2023-05-07T15:20:08;8.36;73.92
67165;SHT31;54093;50.014;19.984;2023-05-07T15:29:29;8.30;74.36
67165;SHT31;54093;50.014;19.984;2023-05-07T15:38:50;8.28;74.49
67165;SHT31;54093;50.014;19.984;2023-05-07T15:48:11;8.19;74.69
67165;SHT31;54093;50.014;19.984;2023-05-07T15:57:32;8.12;74.59
67165;SHT31;54093;50.014;19.984;2023-05-07T16:06:53;8.07;75.06
67165;SHT31;54093;50.014;19.984;2023-05-07T16:16:14;8.09;75.32
67165;SHT31;54093;50.014;19.984;2023-05-07T16:25:35;8.09;75.45
67165;SHT31;54093;50.014;19.984;2023-05-07T16:34:56;8.01;75.25
67165;SHT31;54093;50.014;19.984;2023-05-07T16:44:17;7.98;75.61
67165;SHT31;54093;50.014;19.984;2023-05-07T16:53:38;7.95;75.81
67165;SHT31;54093;50.014;19.984;2023-05-07T17:02:59;7.83;75.60
67165;SHT31;54093;50.014;19.984;2023-05-07T17:12:20;7.83;75.69
67165;SHT31;54093;50.014;19.984;2023-05-07T17:21:42;7.83;75.62
67165;SHT31;54093;50.014;19.984;2023-05-07T17:31:03;7.77;75.75
67165;SHT31;54093;50.014;19.984;2023-05-07T17:40:23;7.67;75.42
67165;SHT31;54093;50.014;19.984;2023-05-07T17:49:48;7.61;75.61
67165;SHT31;54093;50.014;19.984;2023-05-07T17:59:09;7.60;75.98
67165;SHT31;54093;50.014;19.984;2023-05-07T18:08:33;7.57;75.52
67165;SHT31;54093;50.014;19.984;2023-05-07T18:17:54;7.55;75.97
67165;SHT31;54093;50.014;19.984;2023-05-07T18:27:15;7.55;76.02
67165;SHT31;54093;50.014;19.984;2023-05-07T18:36:36;7.54;76.00
67165;SHT31;54093;50.014;19.984;2023-05-07T18:45:57;7.43;75.61
67165;SHT31;54093;50.014;19.984;2023-05-07T18:55:18;7.43;76.40
67165;SHT31;54093;50.014;19.984;2023-05-07T19:04:41;7.31;75.74
67165;SHT31;54093;50.014;19.984;2023-05-07T19:14:02;7.27;75.79
67165;SHT31;54093;50.014;19.984;2023-05-07T19:23:23;7.17;76.15
67165;SHT31;54093;50.014;19.984;2023-05-07T19:32:44;7.16;76.20
67165;SHT31;54093;50.014;19.984;2023-05-07T19:42:05;7.19;76.50
67165;SHT31;54093;50.014;19.984;2023-05-07T19:51:26;7.14;76.52
67165;SHT31;54093;50.014;19.984;2023-05-07T20:00:51;7.20;76.65
67165;SHT31;54093;50.014;19.984;2023-05-07T20:10:12;7.22;76.72
67165;SHT31;54093;50.014;19.984;2023-05-07T20:19:33;7.17;76.57
67165;SHT31;54093;50.014;19.984;2023-05-07T20:28:54;7.19;76.67
67165;SHT31;54093;50.014;19.984;2023-05-07T20:38:15;7.17;76.58
67165;SHT31;54093;50.014;19.984;2023-05-07T20:47:36;7.12;76.36
67165;SHT31;54093;50.014;19.984;2023-05-07T20:56:57;7.10;76.53
67165;SHT31;54093;50.014;19.984;2023-05-07T21:06:19;7.10;76.47
67165;SHT31;54093;50.014;19.984;2023-05-07T21:15:41;7.09;77.04
67165;SHT31;54093;50.014;19.984;2023-05-07T21:25:02;7.07;77.10
67165;SHT31;54093;50.014;19.984;2023-05-07T21:34:23;7.04;76.82
67165;SHT31;54093;50.014;19.984;2023-05-07T21:43:44;7.09;77.26
67165;SHT31;54093;50.014;19.984;2023-05-07T21:53:05;7.04;76.60
67165;SHT31;54093;50.014;19.984;2023-05-07T22:02:26;7.03;76.96
67165;SHT31;54093;50.014;19.984;2023-05-07T22:11:47;6.96;76.50
67165;SHT31;54093;50.014;19.984;2023-05-07T22:21:08;6.96;77.05
67165;SHT31;54093;50.014;19.984;2023-05-07T22:30:29;6.95;76.73
67165;SHT31;54093;50.014;19.984;2023-05-07T22:39:50;6.88;76.50
67165;SHT31;54093;50.014;19.984;2023-05-07T22:49:11;6.85;76.33
67165;SHT31;54093;50.014;19.984;2023-05-07T22:58:32;6.92;76.71
67165;SHT31;54093;50.014;19.984;2023-05-07T23:07:53;6.89;76.51
67165;SHT31;54093;50.014;19.984;2023-05-07T23:17:14;6.85;76.32
67165;SHT31;54093;50.014;19.984;2023-05-07T23:26:35;6.75;77.26
67165;SHT31;54093;50.014;19.984;2023-05-07T23:36:00;6.76;77.38
67165;SHT31;54093;50.014;19.984;2023-05-07T23:45:21;6.82;77.44
67165;SHT31;54093;50.014;19.984;2023-05-07T23:54:42;6.76;77.49
